DAL475 KSLC-KONT
Flight info
| Callsign | DAL475 |
|---|---|
| Flight time | N/A |
| Altitude | 38000 |
| Route | ARCHZ1 WINEN BLD Q114 NATEE JCKIE2 |
| Aircraft | A319/M-SDE3FGHIRWY/LB1 |
Departure
| Time | 2026-04-30 14:55 |
|---|---|
| Airport | Salt Lake City International Airport (KSLC) |
Arrival
| Time | N/A |
|---|---|
| Airport | Ontario International Airport (KONT) |
| Time | Latitude | Longitude | Altitude | Speed | Heading |
|---|---|---|---|---|---|
| 2026-04-30 14:44 | 40.78645 | -111.98104 | 4231 ft | 0 kts | 175° |
| 2026-04-30 14:47 | 40.78651 | -111.98105 | 4231 ft | 2 kts | 175° |
| 2026-04-30 14:47 | 40.78668 | -111.98106 | 4231 ft | 2 kts | 175° |
| 2026-04-30 14:48 | 40.78684 | -111.98108 | 4231 ft | 2 kts | 175° |
| 2026-04-30 14:48 | 40.78700 | -111.98109 | 4231 ft | 2 kts | 175° |
| 2026-04-30 14:48 | 40.78716 | -111.98111 | 4231 ft | 2 kts | 168° |
| 2026-04-30 14:48 | 40.78730 | -111.98121 | 4231 ft | 2 kts | 98° |
| 2026-04-30 14:49 | 40.78730 | -111.98132 | 4231 ft | 0 kts | 85° |
| 2026-04-30 14:49 | 40.78731 | -111.98116 | 4231 ft | 3 kts | 85° |
| 2026-04-30 14:50 | 40.78738 | -111.98016 | 4231 ft | 8 kts | 85° |
| 2026-04-30 14:50 | 40.78744 | -111.97923 | 4231 ft | 12 kts | 85° |
| 2026-04-30 14:51 | 40.78746 | -111.97695 | 4231 ft | 11 kts | 129° |
| 2026-04-30 14:51 | 40.78661 | -111.97672 | 4231 ft | 14 kts | 176° |
| 2026-04-30 14:51 | 40.78418 | -111.97642 | 4230 ft | 21 kts | 174° |
| 2026-04-30 14:52 | 40.78268 | -111.97625 | 4231 ft | 22 kts | 175° |
| 2026-04-30 14:52 | 40.77963 | -111.97589 | 4259 ft | 22 kts | 172° |
| 2026-04-30 14:52 | 40.77817 | -111.97524 | 4260 ft | 22 kts | 170° |
| 2026-04-30 14:53 | 40.77510 | -111.97486 | 4259 ft | 22 kts | 174° |
| 2026-04-30 14:53 | 40.77449 | -111.97420 | 4259 ft | 11 kts | 76° |
| 2026-04-30 14:54 | 40.77602 | -111.97331 | 4259 ft | 29 kts | 354° |
| 2026-04-30 14:54 | 40.79003 | -111.97494 | 4232 ft | 162 kts | 355° |
| 2026-04-30 14:55 | 40.81194 | -111.98520 | 5347 ft | 180 kts | 305° |
| 2026-04-30 14:55 | 40.81561 | -112.00095 | 5968 ft | 186 kts | 276° |
| 2026-04-30 14:55 | 40.81657 | -112.03927 | 6614 ft | 231 kts | 270° |
| 2026-04-30 14:56 | 40.81551 | -112.08584 | 7563 ft | 276 kts | 255° |
| 2026-04-30 14:56 | 40.78956 | -112.12336 | 9369 ft | 293 kts | 207° |
| 2026-04-30 14:57 | 40.77178 | -112.13618 | 10297 ft | 298 kts | 212° |
| 2026-04-30 14:57 | 40.73415 | -112.16830 | 11082 ft | 345 kts | 215° |
| 2026-04-30 14:58 | 40.69315 | -112.20440 | 12637 ft | 360 kts | 214° |
| 2026-04-30 14:58 | 40.67200 | -112.22255 | 13514 ft | 364 kts | 214° |
| 2026-04-30 14:58 | 40.62872 | -112.25882 | 15077 ft | 373 kts | 214° |
| 2026-04-30 14:59 | 40.58424 | -112.29556 | 16558 ft | 381 kts | 214° |
| 2026-04-30 15:00 | 40.50895 | -112.33460 | 18653 ft | 397 kts | 199° |
| 2026-04-30 15:00 | 40.45586 | -112.35619 | 19887 ft | 405 kts | 199° |
| 2026-04-30 15:01 | 40.40134 | -112.37838 | 21144 ft | 413 kts | 199° |
| 2026-04-30 15:01 | 40.38308 | -112.38582 | 21533 ft | 415 kts | 199° |
| 2026-04-30 15:01 | 40.31828 | -112.41223 | 22914 ft | 422 kts | 199° |
| 2026-04-30 15:02 | 40.29008 | -112.42376 | 23464 ft | 426 kts | 199° |
| 2026-04-30 15:02 | 40.27128 | -112.43146 | 23798 ft | 428 kts | 199° |
| 2026-04-30 15:03 | 40.18513 | -112.46743 | 25123 ft | 436 kts | 205° |
| 2026-04-30 15:03 | 40.13105 | -112.50373 | 26005 ft | 439 kts | 212° |
| 2026-04-30 15:04 | 40.07734 | -112.54172 | 26879 ft | 444 kts | 212° |
| 2026-04-30 15:04 | 39.99498 | -112.59961 | 28165 ft | 452 kts | 212° |
| 2026-04-30 15:05 | 39.91108 | -112.65826 | 29351 ft | 459 kts | 212° |
| 2026-04-30 15:06 | 39.85479 | -112.69760 | 30140 ft | 462 kts | 212° |
| 2026-04-30 15:06 | 39.79817 | -112.73721 | 30815 ft | 464 kts | 212° |
| 2026-04-30 15:07 | 39.74127 | -112.77672 | 31656 ft | 462 kts | 213° |
| 2026-04-30 15:07 | 39.68409 | -112.81552 | 32360 ft | 467 kts | 209° |
| 2026-04-30 15:08 | 39.62189 | -112.84259 | 33116 ft | 472 kts | 203° |
| 2026-04-30 15:08 | 39.52805 | -112.87975 | 34328 ft | 471 kts | 204° |
| 2026-04-30 15:09 | 39.46552 | -112.90454 | 35087 ft | 468 kts | 204° |
| 2026-04-30 15:09 | 39.40365 | -112.92912 | 35897 ft | 461 kts | 205° |
| 2026-04-30 15:10 | 39.34290 | -112.95316 | 36667 ft | 456 kts | 205° |
| 2026-04-30 15:11 | 39.22264 | -113.00075 | 38029 ft | 449 kts | 205° |
| 2026-04-30 15:11 | 39.16293 | -113.02429 | 38093 ft | 446 kts | 206° |
| 2026-04-30 15:13 | 39.01485 | -113.08262 | 38093 ft | 446 kts | 206° |
| 2026-04-30 15:14 | 38.80787 | -113.16355 | 38094 ft | 443 kts | 206° |
| 2026-04-30 15:17 | 38.54301 | -113.26626 | 38146 ft | 442 kts | 205° |
| 2026-04-30 15:19 | 38.30777 | -113.35693 | 38121 ft | 440 kts | 205° |